Time;durP1;ratioP1;P1;durP2;ratioP2;P2;SDS_P1;SDS_P2;PMS_P1;PMS_P2;Temp;Humidity;BMP_temperature;BMP_pressure;BME280_temperature;BME280_humidity;BME280_pressure;Samples;Min_cycle;Max_cycle;Signal;HPM_P1;HPM_P2
2023/02/15 00:00:14;;;;;;;57.77;23.00;;;;;;;;;;5013703;28;20453;-92
2023/02/15 00:02:40;;;;;;;61.93;25.70;;;;;;;;;;4995358;28;21099;-79
2023/02/15 00:05:06;;;;;;;86.67;27.27;;;;;;;;;;4997710;28;20427;-93
2023/02/15 00:07:32;;;;;;;65.13;24.57;;;;;;;;;;5015233;28;20907;-93
2023/02/15 00:10:01;;;;;;;63.87;24.17;;;;;;;;;;5013278;28;20958;-90
2023/02/15 00:12:30;;;;;;;64.80;22.03;;;;;;;;;;5014147;28;20465;-93
2023/02/15 00:14:55;;;;;;;55.67;25.97;;;;;;;;;;5013262;28;20839;-91
2023/02/15 00:17:21;;;;;;;73.57;28.10;;;;;;;;;;5013852;28;20466;-89
2023/02/15 00:19:47;;;;;;;70.97;27.20;;;;;;;;;;5012567;28;20425;-91
2023/02/15 00:22:13;;;;;;;75.47;26.40;;;;;;;;;;5017144;28;20415;-92
2023/02/15 00:24:39;;;;;;;57.90;25.53;;;;;;;;;;5014906;28;20446;-91
2023/02/15 00:27:05;;;;;;;53.37;27.00;;;;;;;;;;5014172;28;20916;-94
2023/02/15 00:29:31;;;;;;;62.57;27.50;;;;;;;;;;5017357;28;20420;-94
2023/02/15 00:32:00;;;;;;;76.17;26.77;;;;;;;;;;5017609;28;20422;-93
2023/02/15 00:34:27;;;;;;;74.83;26.50;;;;;;;;;;5018752;28;20764;-90
2023/02/15 00:36:53;;;;;;;53.30;23.43;;;;;;;;;;5014398;28;20460;-87
2023/02/15 00:39:19;;;;;;;67.63;24.77;;;;;;;;;;5023100;28;20566;-90
2023/02/15 00:41:45;;;;;;;69.27;26.53;;;;;;;;;;5013958;28;20414;-93
2023/02/15 00:44:12;;;;;;;62.37;27.00;;;;;;;;;;5013631;28;20505;-88
2023/02/15 00:46:38;;;;;;;76.70;26.93;;;;;;;;;;5012970;28;20416;-87
2023/02/15 00:49:04;;;;;;;75.27;27.27;;;;;;;;;;5013124;28;20451;-87
2023/02/15 00:51:30;;;;;;;93.53;27.73;;;;;;;;;;5016342;28;20900;-87
2023/02/15 00:53:56;;;;;;;61.30;26.17;;;;;;;;;;5014995;28;20564;-85
2023/02/15 00:56:22;;;;;;;68.83;24.63;;;;;;;;;;5016293;28;20504;-87
2023/02/15 00:58:48;;;;;;;75.73;26.37;;;;;;;;;;5016392;28;20469;-88
2023/02/15 01:01:15;;;;;;;59.63;25.80;;;;;;;;;;5015038;28;20794;-87
2023/02/15 01:03:41;;;;;;;90.87;27.80;;;;;;;;;;5014645;28;20435;-85
2023/02/15 01:06:07;;;;;;;71.07;26.37;;;;;;;;;;5016287;28;20414;-86
2023/02/15 01:08:33;;;;;;;72.30;27.00;;;;;;;;;;4998680;28;20431;-85
2023/02/15 01:11:06;;;;;;;61.83;26.37;;;;;;;;;;5015026;28;20430;-87
2023/02/15 01:13:32;;;;;;;71.97;25.00;;;;;;;;;;5014724;28;20627;-87
2023/02/15 01:15:58;;;;;;;69.13;26.37;;;;;;;;;;5014999;28;20416;-87
2023/02/15 01:18:24;;;;;;;88.63;29.80;;;;;;;;;;5014519;28;20758;-87
2023/02/15 01:20:53;;;;;;;65.27;24.63;;;;;;;;;;5014612;28;20410;-87
2023/02/15 01:23:19;;;;;;;81.80;26.60;;;;;;;;;;5014796;28;20435;-87
2023/02/15 01:25:45;;;;;;;67.13;27.40;;;;;;;;;;5015936;28;20815;-86
2023/02/15 01:28:11;;;;;;;63.87;28.37;;;;;;;;;;5014644;28;20427;-88
2023/02/15 01:30:40;;;;;;;66.63;25.70;;;;;;;;;;5015819;28;20990;-86
2023/02/15 01:33:06;;;;;;;87.60;27.23;;;;;;;;;;5014085;28;20478;-85
2023/02/15 01:35:32;;;;;;;93.00;28.43;;;;;;;;;;5015967;28;20431;-85
2023/02/15 01:37:58;;;;;;;93.00;25.97;;;;;;;;;;5016327;28;20401;-88
2023/02/15 01:40:26;;;;;;;89.30;27.97;;;;;;;;;;5015239;28;20435;-91
2023/02/15 01:42:53;;;;;;;78.07;26.50;;;;;;;;;;5023885;28;20440;-91
2023/02/15 01:45:25;;;;;;;74.97;24.30;;;;;;;;;;5024003;28;20466;-92
2023/02/15 01:47:54;;;;;;;75.47;26.00;;;;;;;;;;5024710;28;20424;-91
2023/02/15 01:50:28;;;;;;;76.03;26.17;;;;;;;;;;5025386;28;20422;-94
2023/02/15 01:53:13;;;;;;;74.43;22.80;;;;;;;;;;5024881;28;20467;-91
2023/02/15 01:55:44;;;;;;;85.30;24.20;;;;;;;;;;5024578;28;20426;-92
2023/02/15 01:58:10;;;;;;;83.20;23.87;;;;;;;;;;5026232;28;20419;-94
2023/02/15 02:00:36;;;;;;;91.77;24.83;;;;;;;;;;5025115;28;20431;-93
2023/02/15 02:03:04;;;;;;;83.37;27.13;;;;;;;;;;5013007;28;20419;-81
2023/02/15 02:05:33;;;;;;;55.73;22.67;;;;;;;;;;5001358;28;20410;-93
2023/02/15 02:07:59;;;;;;;73.57;23.97;;;;;;;;;;5031861;28;20535;-81
2023/02/15 02:10:26;;;;;;;57.23;20.40;;;;;;;;;;5035452;28;20417;-89
2023/02/15 02:12:54;;;;;;;59.73;23.23;;;;;;;;;;5036203;28;20456;-88
2023/02/15 02:15:24;;;;;;;62.60;23.23;;;;;;;;;;5035324;28;20498;-90
2023/02/15 02:17:55;;;;;;;52.67;22.33;;;;;;;;;;5036096;28;20466;-91
2023/02/15 02:20:24;;;;;;;81.93;23.47;;;;;;;;;;5035440;28;20510;-86
2023/02/15 02:23:11;;;;;;;73.27;22.27;;;;;;;;;;5017886;28;20411;-92
2023/02/15 02:25:45;;;;;;;53.70;24.77;;;;;;;;;;5015678;28;20398;-90
2023/02/15 02:28:30;;;;;;;60.87;23.87;;;;;;;;;;5015590;28;20417;-88
2023/02/15 02:31:05;;;;;;;60.57;23.60;;;;;;;;;;5015592;28;20399;-91
2023/02/15 02:33:54;;;;;;;76.03;25.13;;;;;;;;;;5013811;28;20565;-86
2023/02/15 02:36:44;;;;;;;64.13;23.40;;;;;;;;;;5001685;28;20417;-92
2023/02/15 02:39:22;;;;;;;52.63;22.60;;;;;;;;;;5014335;28;20427;-93
2023/02/15 02:41:57;;;;;;;80.77;23.63;;;;;;;;;;5015659;28;20401;-93
2023/02/15 02:44:29;;;;;;;59.10;23.50;;;;;;;;;;5016995;28;20411;-94
2023/02/15 02:46:59;;;;;;;98.40;26.67;;;;;;;;;;5017834;28;20412;-93
2023/02/15 02:49:34;;;;;;;61.63;24.03;;;;;;;;;;5016005;28;20914;-93
2023/02/15 02:52:02;;;;;;;51.17;21.60;;;;;;;;;;5015691;28;20503;-92
2023/02/15 02:54:28;;;;;;;72.37;23.47;;;;;;;;;;5014451;28;20503;-91
2023/02/15 02:56:56;;;;;;;53.53;22.20;;;;;;;;;;5015150;28;20406;-93
2023/02/15 02:59:29;;;;;;;78.20;23.00;;;;;;;;;;5015551;28;20410;-88
2023/02/15 03:01:58;;;;;;;82.43;25.00;;;;;;;;;;5015252;28;20976;-87
2023/02/15 03:04:28;;;;;;;63.83;24.50;;;;;;;;;;5013454;28;20469;-91
2023/02/15 03:07:05;;;;;;;68.83;19.93;;;;;;;;;;5015089;28;20418;-92
2023/02/15 03:09:43;;;;;;;70.83;24.30;;;;;;;;;;5014871;28;20512;-90
2023/02/15 03:12:11;;;;;;;76.97;21.83;;;;;;;;;;5014126;28;20477;-85
2023/02/15 03:14:37;;;;;;;61.30;22.93;;;;;;;;;;5013760;28;20919;-92
2023/02/15 03:17:04;;;;;;;83.23;22.00;;;;;;;;;;5014955;28;20473;-89
2023/02/15 03:19:35;;;;;;;80.07;21.37;;;;;;;;;;5014496;28;20454;-90
2023/02/15 03:22:14;;;;;;;64.17;19.20;;;;;;;;;;5014777;28;20501;-85
2023/02/15 03:24:54;;;;;;;74.70;21.77;;;;;;;;;;5014182;28;20480;-93
2023/02/15 03:27:22;;;;;;;70.83;22.67;;;;;;;;;;5015847;28;20439;-90
2023/02/15 03:29:52;;;;;;;64.83;21.27;;;;;;;;;;5014834;28;20493;-94
2023/02/15 03:32:19;;;;;;;29.53;15.57;;;;;;;;;;5015225;28;20471;-92
2023/02/15 03:34:45;;;;;;;71.30;20.17;;;;;;;;;;5014486;28;20484;-92
2023/02/15 03:37:13;;;;;;;54.50;20.63;;;;;;;;;;5015269;28;20417;-79
2023/02/15 03:39:46;;;;;;;66.67;21.00;;;;;;;;;;5014265;28;20513;-91
2023/02/15 03:42:22;;;;;;;51.73;16.40;;;;;;;;;;5014276;28;20434;-90
2023/02/15 03:44:57;;;;;;;70.60;20.50;;;;;;;;;;5014274;28;21003;-91
2023/02/15 03:47:26;;;;;;;64.13;17.37;;;;;;;;;;5014403;28;20500;-91
2023/02/15 03:51:33;;;;;;;63.70;17.53;;;;;;;;;;5013853;28;20425;-90
2023/02/15 03:52:55;;;;;;;46.13;18.10;;;;;;;;;;4993032;28;20480;-88
2023/02/15 03:55:21;;;;;;;80.70;19.50;;;;;;;;;;4997896;28;20417;-91
2023/02/15 04:03:31;;;;;;;58.10;18.50;;;;;;;;;;5014301;28;20496;-89
2023/02/15 04:05:57;;;;;;;59.97;18.53;;;;;;;;;;5013176;28;20417;-91
2023/02/15 04:10:51;;;;;;;52.83;17.87;;;;;;;;;;5013084;28;20457;-91
2023/02/15 04:11:09;;;;;;;59.77;18.17;;;;;;;;;;5014231;28;20417;-90
2023/02/15 04:13:35;;;;;;;62.30;19.50;;;;;;;;;;5015143;28;20461;-93
2023/02/15 04:16:04;;;;;;;31.13;14.50;;;;;;;;;;5014490;28;20410;-89
2023/02/15 04:26:52;;;;;;;33.50;14.57;;;;;;;;;;5019370;28;20393;-91
2023/02/15 04:29:19;;;;;;;43.93;17.23;;;;;;;;;;5017585;28;20477;-88
2023/02/15 04:31:44;;;;;;;55.97;17.57;;;;;;;;;;5018075;28;20741;-90
2023/02/15 04:34:10;;;;;;;33.93;15.00;;;;;;;;;;5017677;28;20476;-89
2023/02/15 04:36:37;;;;;;;42.53;16.27;;;;;;;;;;5016632;28;20834;-92
2023/02/15 04:39:03;;;;;;;66.40;17.80;;;;;;;;;;5016816;28;20910;-91
2023/02/15 04:41:29;;;;;;;54.37;16.10;;;;;;;;;;5017794;28;20409;-79
2023/02/15 04:43:56;;;;;;;66.13;16.00;;;;;;;;;;5017458;28;20413;-90
2023/02/15 04:46:22;;;;;;;43.57;14.90;;;;;;;;;;5017672;28;20548;-91
2023/02/15 04:48:48;;;;;;;62.33;17.13;;;;;;;;;;5016081;28;20428;-91
2023/02/15 04:51:14;;;;;;;42.63;16.80;;;;;;;;;;5017444;28;20410;-92
2023/02/15 04:53:40;;;;;;;59.53;16.13;;;;;;;;;;5017512;28;20958;-92
2023/02/15 04:56:06;;;;;;;76.33;17.63;;;;;;;;;;5016362;28;20431;-79
2023/02/15 04:58:32;;;;;;;46.00;15.07;;;;;;;;;;5016617;28;20918;-79
2023/02/15 05:00:58;;;;;;;83.67;17.93;;;;;;;;;;5017510;28;20496;-92
2023/02/15 05:03:24;;;;;;;45.77;17.10;;;;;;;;;;5016402;28;20437;-89
2023/02/15 05:05:50;;;;;;;46.00;15.03;;;;;;;;;;5018242;28;20433;-88
2023/02/15 05:08:22;;;;;;;58.27;16.43;;;;;;;;;;5015742;28;20422;-78
2023/02/15 05:10:49;;;;;;;64.30;14.97;;;;;;;;;;5017371;28;20505;-84
2023/02/15 05:13:15;;;;;;;39.43;15.40;;;;;;;;;;5014924;28;20479;-79
2023/02/15 05:15:41;;;;;;;53.77;16.53;;;;;;;;;;5015739;28;20418;-82
2023/02/15 05:18:07;;;;;;;45.50;15.53;;;;;;;;;;5016089;28;20414;-91
2023/02/15 05:20:33;;;;;;;69.63;16.70;;;;;;;;;;5016789;28;20452;-90
2023/02/15 05:22:59;;;;;;;57.53;15.87;;;;;;;;;;5015758;28;20926;-88
2023/02/15 05:28:20;;;;;;;47.90;14.53;;;;;;;;;;5016449;28;20505;-87
2023/02/15 05:30:47;;;;;;;35.20;14.90;;;;;;;;;;5016998;28;20789;-90
2023/02/15 05:33:13;;;;;;;64.37;17.63;;;;;;;;;;5016105;28;20474;-85
2023/02/15 05:35:39;;;;;;;66.40;16.77;;;;;;;;;;5014835;28;20402;-84
2023/02/15 05:38:05;;;;;;;62.03;16.67;;;;;;;;;;5015776;28;20891;-88
2023/02/15 05:40:30;;;;;;;55.37;13.70;;;;;;;;;;5016481;28;20497;-82
2023/02/15 05:42:58;;;;;;;47.57;14.37;;;;;;;;;;5015122;28;20930;-87
2023/02/15 05:45:24;;;;;;;43.83;14.50;;;;;;;;;;5015777;28;20474;-87
2023/02/15 05:47:50;;;;;;;47.77;15.00;;;;;;;;;;5003923;28;20462;-86
2023/02/15 05:50:17;;;;;;;39.57;15.07;;;;;;;;;;5011135;28;20931;-88
2023/02/15 05:52:43;;;;;;;53.40;15.47;;;;;;;;;;5001027;28;20460;-91
2023/02/15 05:55:09;;;;;;;74.67;18.13;;;;;;;;;;5016927;28;20422;-91
2023/02/15 05:57:35;;;;;;;53.97;18.30;;;;;;;;;;5014853;28;20866;-82
2023/02/15 06:00:04;;;;;;;53.37;15.60;;;;;;;;;;5017888;28;20430;-92
2023/02/15 06:02:30;;;;;;;38.93;16.40;;;;;;;;;;5010741;28;20419;-87
2023/02/15 06:04:56;;;;;;;60.57;16.17;;;;;;;;;;4998599;28;20410;-89
2023/02/15 06:07:22;;;;;;;66.53;15.87;;;;;;;;;;4996250;28;20422;-91
2023/02/15 06:09:47;;;;;;;18.70;9.80;;;;;;;;;;4996410;28;20407;-90
2023/02/15 06:12:13;;;;;;;46.97;16.30;;;;;;;;;;5009550;28;20766;-84
2023/02/15 06:14:39;;;;;;;49.70;16.37;;;;;;;;;;5033751;28;20520;-86
2023/02/15 06:17:06;;;;;;;49.07;14.30;;;;;;;;;;5018721;28;20445;-88
2023/02/15 06:19:32;;;;;;;49.70;16.00;;;;;;;;;;5014719;28;20426;-88
2023/02/15 06:21:57;;;;;;;61.97;14.83;;;;;;;;;;5014462;28;20425;-88
2023/02/15 06:24:23;;;;;;;54.43;15.30;;;;;;;;;;5014799;28;20775;-87
2023/02/15 06:26:49;;;;;;;67.43;14.00;;;;;;;;;;4975828;28;20874;-88
2023/02/15 06:29:15;;;;;;;79.37;17.10;;;;;;;;;;5015616;28;20446;-88
2023/02/15 06:31:41;;;;;;;65.13;15.07;;;;;;;;;;5015462;28;20455;-88
2023/02/15 06:34:07;;;;;;;78.80;15.00;;;;;;;;;;5015035;28;20498;-83
2023/02/15 06:36:33;;;;;;;46.07;14.60;;;;;;;;;;5014481;28;20411;-80
2023/02/15 06:38:59;;;;;;;66.47;14.50;;;;;;;;;;5014339;28;20768;-81
2023/02/15 06:41:25;;;;;;;80.60;15.33;;;;;;;;;;5014530;28;20419;-88
2023/02/15 06:43:51;;;;;;;36.30;13.50;;;;;;;;;;5013852;28;20938;-81
2023/02/15 06:46:17;;;;;;;55.70;15.17;;;;;;;;;;5015890;28;20504;-91
2023/02/15 06:48:43;;;;;;;62.50;17.17;;;;;;;;;;5027005;28;20429;-89
2023/02/15 06:51:09;;;;;;;73.87;16.60;;;;;;;;;;5028317;28;20420;-87
2023/02/15 06:53:35;;;;;;;76.07;16.87;;;;;;;;;;5025821;28;20472;-93
2023/02/15 06:56:02;;;;;;;56.73;14.03;;;;;;;;;;5015109;28;20401;-92
2023/02/15 06:58:31;;;;;;;73.90;13.83;;;;;;;;;;5018237;28;20443;-91
2023/02/15 07:00:57;;;;;;;93.13;18.77;;;;;;;;;;5020207;28;20508;-90
2023/02/15 07:03:23;;;;;;;53.10;16.30;;;;;;;;;;5017712;28;20454;-87
2023/02/15 07:05:49;;;;;;;46.70;15.63;;;;;;;;;;5013935;28;20797;-79
2023/02/15 07:08:15;;;;;;;66.83;14.50;;;;;;;;;;5013315;28;20931;-90
2023/02/15 07:10:44;;;;;;;39.17;13.80;;;;;;;;;;5014531;28;20408;-83
2023/02/15 07:13:10;;;;;;;64.50;16.70;;;;;;;;;;5013376;28;20471;-89
2023/02/15 07:15:36;;;;;;;68.83;15.83;;;;;;;;;;5013348;28;21002;-90
2023/02/15 07:18:02;;;;;;;50.03;15.07;;;;;;;;;;5014049;28;20421;-83
2023/02/15 07:20:28;;;;;;;52.50;15.13;;;;;;;;;;5013735;28;20824;-81
2023/02/15 07:22:54;;;;;;;45.67;14.07;;;;;;;;;;5014807;28;20472;-87
2023/02/15 07:25:20;;;;;;;61.07;23.60;;;;;;;;;;5013469;28;20425;-89
2023/02/15 07:27:50;;;;;;;93.00;19.03;;;;;;;;;;5013279;28;20418;-90
2023/02/15 07:30:17;;;;;;;51.87;15.40;;;;;;;;;;4973984;28;20528;-81
2023/02/15 07:35:28;;;;;;;50.53;15.30;;;;;;;;;;5015443;28;20409;-92
2023/02/15 07:37:54;;;;;;;44.93;13.23;;;;;;;;;;5013807;28;20918;-92
2023/02/15 07:40:23;;;;;;;64.70;15.90;;;;;;;;;;5014325;28;21014;-91
2023/02/15 07:42:48;;;;;;;61.43;15.57;;;;;;;;;;5016135;28;20418;-96
2023/02/15 07:45:14;;;;;;;48.73;13.70;;;;;;;;;;5017843;28;20454;-94
2023/02/15 07:47:40;;;;;;;36.13;15.50;;;;;;;;;;5013136;28;20958;-84
2023/02/15 07:50:06;;;;;;;61.33;13.67;;;;;;;;;;5014342;28;20406;-91
2023/02/15 07:52:32;;;;;;;49.53;14.50;;;;;;;;;;5013366;28;20453;-81
2023/02/15 07:54:58;;;;;;;35.90;12.60;;;;;;;;;;5014074;28;20456;-89
2023/02/15 07:57:24;;;;;;;61.13;16.90;;;;;;;;;;5014188;28;20456;-95
2023/02/15 07:59:50;;;;;;;37.20;11.13;;;;;;;;;;5017052;28;20931;-90
2023/02/15 08:02:16;;;;;;;54.73;14.27;;;;;;;;;;5017103;28;20410;-90
2023/02/15 08:04:42;;;;;;;47.27;13.77;;;;;;;;;;5018389;28;20416;-91
2023/02/15 08:07:08;;;;;;;50.40;16.03;;;;;;;;;;5016629;28;20420;-90
2023/02/15 08:09:34;;;;;;;47.13;11.80;;;;;;;;;;5018230;28;20417;-83
2023/02/15 08:12:00;;;;;;;36.30;14.20;;;;;;;;;;5025145;28;20752;-85
2023/02/15 08:14:27;;;;;;;43.93;13.90;;;;;;;;;;5023173;28;20472;-91
2023/02/15 08:17:02;;;;;;;37.67;16.67;;;;;;;;;;5024372;28;20511;-82
2023/02/15 08:19:29;;;;;;;52.40;20.57;;;;;;;;;;5023185;28;20417;-95
2023/02/15 08:22:03;;;;;;;60.37;16.47;;;;;;;;;;5019273;28;20444;-94
2023/02/15 08:24:30;;;;;;;45.83;14.00;;;;;;;;;;5018206;28;20445;-95
2023/02/15 08:26:55;;;;;;;38.77;15.70;;;;;;;;;;5017551;28;20431;-94
2023/02/15 08:29:23;;;;;;;56.37;18.73;;;;;;;;;;5017682;28;20421;-90
2023/02/15 08:31:49;;;;;;;34.73;14.77;;;;;;;;;;5017605;28;20486;-80
2023/02/15 08:34:16;;;;;;;55.17;19.47;;;;;;;;;;5017168;28;20472;-93
2023/02/15 08:39:46;;;;;;;44.13;19.40;;;;;;;;;;5017205;28;20407;-81
2023/02/15 08:42:12;;;;;;;48.90;15.63;;;;;;;;;;5016869;28;20889;-78
2023/02/15 08:44:41;;;;;;;27.33;12.00;;;;;;;;;;5017548;28;20454;-91
2023/02/15 08:47:09;;;;;;;19.13;11.33;;;;;;;;;;5015436;28;20441;-81
2023/02/15 08:49:35;;;;;;;28.03;14.83;;;;;;;;;;5016261;28;20426;-87
2023/02/15 08:52:01;;;;;;;41.23;14.13;;;;;;;;;;5016594;28;20424;-88
2023/02/15 08:54:27;;;;;;;29.30;11.20;;;;;;;;;;5016391;28;20470;-89
2023/02/15 08:56:53;;;;;;;31.93;12.03;;;;;;;;;;5016785;28;20417;-81
2023/02/15 08:59:20;;;;;;;22.67;11.10;;;;;;;;;;5016494;28;20425;-82
2023/02/15 09:01:47;;;;;;;28.03;13.37;;;;;;;;;;5015864;28;20596;-82
2023/02/15 09:04:15;;;;;;;25.13;12.13;;;;;;;;;;5016218;28;20414;-81
2023/02/15 09:06:42;;;;;;;27.83;11.47;;;;;;;;;;4975788;28;20437;-80
2023/02/15 09:09:09;;;;;;;19.87;11.50;;;;;;;;;;5015132;28;20464;-90
2023/02/15 09:11:36;;;;;;;32.20;15.67;;;;;;;;;;5016207;28;20417;-82
2023/02/15 09:14:07;;;;;;;33.57;13.37;;;;;;;;;;5016244;28;20469;-88
2023/02/15 09:16:34;;;;;;;50.50;15.17;;;;;;;;;;5015997;28;20504;-82
2023/02/15 09:19:01;;;;;;;25.30;12.00;;;;;;;;;;5015714;28;20542;-90
2023/02/15 09:21:28;;;;;;;28.70;12.97;;;;;;;;;;5015826;28;20407;-82
2023/02/15 09:23:59;;;;;;;35.17;12.70;;;;;;;;;;5015971;28;20414;-83
2023/02/15 09:26:25;;;;;;;46.50;12.47;;;;;;;;;;5016139;28;20406;-89
2023/02/15 09:28:52;;;;;;;31.97;13.10;;;;;;;;;;5014633;28;20435;-85
2023/02/15 09:31:20;;;;;;;34.23;13.57;;;;;;;;;;5014808;28;20417;-87
2023/02/15 09:33:46;;;;;;;30.40;13.90;;;;;;;;;;5015418;28;20473;-89
2023/02/15 09:36:15;;;;;;;33.40;13.63;;;;;;;;;;5015939;28;20446;-89
2023/02/15 09:38:40;;;;;;;32.13;12.27;;;;;;;;;;5015720;28;20421;-83
2023/02/15 09:41:06;;;;;;;27.57;10.83;;;;;;;;;;5015835;28;20422;-82
2023/02/15 09:43:46;;;;;;;18.90;12.00;;;;;;;;;;5016113;28;20415;-88
2023/02/15 09:46:18;;;;;;;17.93;9.93;;;;;;;;;;5014659;28;20474;-90
2023/02/15 09:48:46;;;;;;;19.37;12.27;;;;;;;;;;5014181;28;20422;-80
2023/02/15 09:51:29;;;;;;;30.60;11.83;;;;;;;;;;5015350;28;20411;-80
2023/02/15 09:54:13;;;;;;;39.77;13.60;;;;;;;;;;5015684;28;20817;-89
2023/02/15 09:56:45;;;;;;;27.77;11.87;;;;;;;;;;5015471;28;20413;-80
2023/02/15 09:59:11;;;;;;;23.60;12.17;;;;;;;;;;5016303;28;20497;-81
2023/02/15 10:01:56;;;;;;;24.07;11.07;;;;;;;;;;5015634;28;20433;-88
2023/02/15 10:04:24;;;;;;;29.07;13.13;;;;;;;;;;5015806;28;20535;-81
2023/02/15 10:07:01;;;;;;;19.97;10.40;;;;;;;;;;5014239;28;20414;-85
2023/02/15 10:09:33;;;;;;;18.67;12.57;;;;;;;;;;5014993;28;20412;-82
2023/02/15 10:12:13;;;;;;;19.33;12.03;;;;;;;;;;5014720;28;20406;-78
2023/02/15 10:14:42;;;;;;;28.07;10.63;;;;;;;;;;4973908;28;20453;-78
2023/02/15 10:17:19;;;;;;;32.50;12.20;;;;;;;;;;5014510;28;20410;-85
2023/02/15 10:20:10;;;;;;;24.27;11.90;;;;;;;;;;5014757;28;20500;-86
2023/02/15 10:22:36;;;;;;;24.93;11.53;;;;;;;;;;5014660;28;20406;-87
2023/02/15 10:25:18;;;;;;;32.03;11.93;;;;;;;;;;5014506;28;20413;-78
2023/02/15 10:27:47;;;;;;;20.40;11.57;;;;;;;;;;5014559;28;20209;-86
2023/02/15 10:30:14;;;;;;;23.27;12.50;;;;;;;;;;5015803;28;20411;-84
2023/02/15 10:32:46;;;;;;;20.90;12.67;;;;;;;;;;5014326;28;21037;-77
2023/02/15 10:35:31;;;;;;;22.93;12.37;;;;;;;;;;5015081;28;20412;-83
2023/02/15 10:38:06;;;;;;;29.50;11.23;;;;;;;;;;5014566;28;20402;-83
2023/02/15 10:40:45;;;;;;;26.30;13.53;;;;;;;;;;5014563;28;20417;-85
2023/02/15 10:43:19;;;;;;;27.90;14.53;;;;;;;;;;5014483;28;20427;-78
2023/02/15 10:46:02;;;;;;;22.00;12.13;;;;;;;;;;5014226;28;21031;-82
2023/02/15 10:48:28;;;;;;;19.30;12.93;;;;;;;;;;5013971;28;20421;-86
2023/02/15 10:51:02;;;;;;;24.30;14.60;;;;;;;;;;5014661;28;20407;-85
2023/02/15 10:53:28;;;;;;;41.50;18.50;;;;;;;;;;5013124;28;20235;-81
2023/02/15 10:56:03;;;;;;;21.53;13.47;;;;;;;;;;5014553;28;20893;-85
2023/02/15 10:58:34;;;;;;;35.10;16.73;;;;;;;;;;5014246;28;20210;-84
2023/02/15 11:01:20;;;;;;;24.93;13.00;;;;;;;;;;5014209;28;20408;-78
2023/02/15 11:04:05;;;;;;;34.63;15.57;;;;;;;;;;5012334;28;20426;-79
2023/02/15 11:06:31;;;;;;;27.77;15.47;;;;;;;;;;4992801;28;20902;-78
2023/02/15 11:09:02;;;;;;;25.20;14.67;;;;;;;;;;4992837;28;20408;-76
2023/02/15 11:11:30;;;;;;;25.73;15.30;;;;;;;;;;4993181;28;20950;-77
2023/02/15 11:14:01;;;;;;;27.17;15.53;;;;;;;;;;5008175;28;20884;-82
2023/02/15 11:16:30;;;;;;;29.17;16.93;;;;;;;;;;4992552;28;20435;-81
2023/02/15 11:18:59;;;;;;;21.57;13.90;;;;;;;;;;4993224;28;20556;-85
2023/02/15 11:21:30;;;;;;;30.37;16.00;;;;;;;;;;4993165;28;20409;-80
2023/02/15 11:23:56;;;;;;;30.97;17.13;;;;;;;;;;4992527;28;20413;-84
2023/02/15 11:26:38;;;;;;;26.93;14.93;;;;;;;;;;4992862;28;20412;-79
2023/02/15 11:29:23;;;;;;;34.60;17.93;;;;;;;;;;4992901;28;20419;-79
2023/02/15 11:31:52;;;;;;;27.70;16.20;;;;;;;;;;4991712;28;20503;-79
2023/02/15 11:34:26;;;;;;;26.57;15.60;;;;;;;;;;4992657;28;21009;-84
2023/02/15 11:36:59;;;;;;;24.60;15.47;;;;;;;;;;4992450;28;20495;-79
2023/02/15 11:39:29;;;;;;;27.37;15.73;;;;;;;;;;4992730;28;20414;-80
2023/02/15 11:42:01;;;;;;;33.80;18.67;;;;;;;;;;4993100;28;20412;-83
2023/02/15 11:44:31;;;;;;;31.33;16.97;;;;;;;;;;4992838;28;20479;-82
2023/02/15 11:46:57;;;;;;;28.27;16.53;;;;;;;;;;5009146;28;20450;-81
2023/02/15 11:49:26;;;;;;;28.23;18.17;;;;;;;;;;5012443;28;20933;-78
2023/02/15 11:51:53;;;;;;;32.13;16.50;;;;;;;;;;5012607;28;20759;-78
2023/02/15 11:54:22;;;;;;;23.00;13.70;;;;;;;;;;4972123;28;20482;-82
2023/02/15 11:56:48;;;;;;;27.90;16.30;;;;;;;;;;5011092;28;20432;-79
2023/02/15 11:59:17;;;;;;;26.27;15.30;;;;;;;;;;5012194;28;20967;-79
2023/02/15 12:01:44;;;;;;;26.43;15.10;;;;;;;;;;5011876;28;20419;-80
2023/02/15 12:04:21;;;;;;;33.17;18.40;;;;;;;;;;5012482;28;20799;-79
2023/02/15 12:06:49;;;;;;;28.00;16.20;;;;;;;;;;5012060;28;20761;-81
2023/02/15 12:09:24;;;;;;;30.10;18.97;;;;;;;;;;5010882;28;20503;-81
2023/02/15 12:11:50;;;;;;;29.87;16.57;;;;;;;;;;5012222;28;20904;-80
2023/02/15 12:14:16;;;;;;;26.63;15.50;;;;;;;;;;5012182;28;20483;-85
2023/02/15 12:16:45;;;;;;;24.30;14.57;;;;;;;;;;5010653;28;20529;-82
2023/02/15 12:19:39;;;;;;;27.33;15.30;;;;;;;;;;5012288;28;20777;-82
2023/02/15 12:22:06;;;;;;;23.83;13.67;;;;;;;;;;5010617;28;20435;-84
2023/02/15 12:24:37;;;;;;;20.27;13.40;;;;;;;;;;5012293;28;20426;-84
2023/02/15 12:27:05;;;;;;;21.87;13.63;;;;;;;;;;5012052;28;20425;-83
2023/02/15 12:29:35;;;;;;;25.50;13.53;;;;;;;;;;4994430;28;20422;-81
2023/02/15 12:32:01;;;;;;;21.50;14.10;;;;;;;;;;5011402;28;20407;-85
2023/02/15 12:34:30;;;;;;;16.93;12.20;;;;;;;;;;5010720;28;20475;-82
2023/02/15 12:36:58;;;;;;;20.23;13.43;;;;;;;;;;5012030;28;20402;-84
2023/02/15 12:39:28;;;;;;;21.93;13.97;;;;;;;;;;5011942;28;20491;-80
2023/02/15 12:41:54;;;;;;;19.20;13.27;;;;;;;;;;5012101;28;20426;-81
2023/02/15 12:44:23;;;;;;;19.07;13.30;;;;;;;;;;5014201;28;20927;-81
2023/02/15 12:46:57;;;;;;;21.87;13.33;;;;;;;;;;5015362;28;20210;-81
2023/02/15 12:49:23;;;;;;;15.43;11.17;;;;;;;;;;5015531;28;20421;-82
2023/02/15 12:51:53;;;;;;;17.10;11.87;;;;;;;;;;5015212;28;20416;-82
2023/02/15 12:54:22;;;;;;;16.83;12.20;;;;;;;;;;4974976;28;20488;-86
2023/02/15 12:56:48;;;;;;;23.00;17.17;;;;;;;;;;5015403;28;20894;-83
2023/02/15 12:59:15;;;;;;;17.20;10.90;;;;;;;;;;5015164;28;20417;-82
2023/02/15 13:01:42;;;;;;;23.50;12.63;;;;;;;;;;5014881;28;20229;-85
2023/02/15 13:04:26;;;;;;;16.40;12.53;;;;;;;;;;5015283;28;20413;-87
2023/02/15 13:06:53;;;;;;;18.20;11.47;;;;;;;;;;5015816;28;20414;-87
2023/02/15 13:09:35;;;;;;;16.80;11.90;;;;;;;;;;5014956;28;20412;-86
2023/02/15 13:12:12;;;;;;;21.60;13.17;;;;;;;;;;5015114;28;20441;-81
2023/02/15 13:14:43;;;;;;;18.67;11.40;;;;;;;;;;5015051;28;20835;-79
2023/02/15 13:17:10;;;;;;;15.53;10.70;;;;;;;;;;5014755;28;20979;-82
2023/02/15 13:19:37;;;;;;;15.50;12.40;;;;;;;;;;5014890;28;20417;-78
2023/02/15 13:22:06;;;;;;;19.47;12.30;;;;;;;;;;5014928;28;20408;-79
2023/02/15 13:24:37;;;;;;;16.90;10.53;;;;;;;;;;5015262;28;20404;-83
2023/02/15 13:27:06;;;;;;;20.20;12.47;;;;;;;;;;5014997;28;20427;-86
2023/02/15 13:29:33;;;;;;;21.80;14.13;;;;;;;;;;5014937;28;20409;-81
2023/02/15 13:32:05;;;;;;;20.73;13.27;;;;;;;;;;5014484;28;20443;-82
2023/02/15 13:34:36;;;;;;;17.87;12.63;;;;;;;;;;5014738;28;20470;-81
2023/02/15 13:37:16;;;;;;;17.23;11.00;;;;;;;;;;5013795;28;20422;-87
2023/02/15 13:39:56;;;;;;;17.40;12.20;;;;;;;;;;5013882;28;20434;-84
2023/02/15 13:42:33;;;;;;;18.70;11.80;;;;;;;;;;5014988;28;20412;-81
2023/02/15 13:45:09;;;;;;;19.20;12.60;;;;;;;;;;5014769;28;21013;-82
2023/02/15 13:47:46;;;;;;;20.63;11.90;;;;;;;;;;5014348;28;20497;-83
2023/02/15 13:50:29;;;;;;;19.20;13.03;;;;;;;;;;5013117;28;20470;-79
2023/02/15 13:53:04;;;;;;;16.43;11.27;;;;;;;;;;5014431;28;20461;-79
2023/02/15 13:55:33;;;;;;;18.70;12.03;;;;;;;;;;4976114;28;21550;-79
2023/02/15 13:58:02;;;;;;;16.37;12.60;;;;;;;;;;5014177;28;20470;-79
2023/02/15 14:00:38;;;;;;;16.93;12.40;;;;;;;;;;5014269;28;20466;-79
2023/02/15 14:03:33;;;;;;;19.30;12.80;;;;;;;;;;5011332;28;20553;-84
2023/02/15 14:06:15;;;;;;;16.60;11.50;;;;;;;;;;5003993;28;20838;-82
2023/02/15 14:08:56;;;;;;;15.00;11.30;;;;;;;;;;5014470;28;20403;-81
2023/02/15 14:11:22;;;;;;;19.37;11.27;;;;;;;;;;5014564;28;20409;-84
2023/02/15 14:13:56;;;;;;;18.50;12.77;;;;;;;;;;5014428;28;20531;-84
2023/02/15 14:16:32;;;;;;;20.43;13.07;;;;;;;;;;5014245;28;20416;-83
2023/02/15 14:19:18;;;;;;;19.50;12.63;;;;;;;;;;5014492;28;20417;-81
2023/02/15 14:21:50;;;;;;;22.37;14.30;;;;;;;;;;5003148;28;20817;-86
2023/02/15 14:24:19;;;;;;;19.67;12.10;;;;;;;;;;5014485;28;20471;-81
2023/02/15 14:27:05;;;;;;;21.57;15.13;;;;;;;;;;5014369;28;20420;-83
2023/02/15 14:29:49;;;;;;;18.17;12.70;;;;;;;;;;5012919;28;20468;-84
2023/02/15 14:32:19;;;;;;;22.73;14.43;;;;;;;;;;5012702;28;20517;-82
2023/02/15 14:34:49;;;;;;;17.43;12.70;;;;;;;;;;5014229;28;20499;-85
2023/02/15 14:37:17;;;;;;;18.73;11.90;;;;;;;;;;5013960;28;20414;-84
2023/02/15 14:42:43;;;;;;;21.83;13.20;;;;;;;;;;5014157;28;20502;-82
2023/02/15 14:45:12;;;;;;;22.63;13.90;;;;;;;;;;5013778;28;20468;-82
2023/02/15 14:47:43;;;;;;;20.53;13.30;;;;;;;;;;5013469;28;20422;-84
2023/02/15 14:50:27;;;;;;;20.10;13.37;;;;;;;;;;5013668;28;20410;-82
2023/02/15 14:53:28;;;;;;;16.07;11.53;;;;;;;;;;5013265;28;20563;-82
2023/02/15 14:56:07;;;;;;;17.43;12.93;;;;;;;;;;4944498;28;20441;-84